createdAt,value
2023-03-03T00:01:10.182Z,0.14
2023-03-03T00:03:43.265Z,0.09
2023-03-03T00:06:17.480Z,0.07
2023-03-03T00:08:50.531Z,0.01
2023-03-03T00:11:24.225Z,-0.03
2023-03-03T00:13:58.325Z,-0.06
2023-03-03T00:16:39.005Z,-0.08
2023-03-03T00:19:20.547Z,-0.12
2023-03-03T00:21:54.211Z,-0.14
2023-03-03T00:24:39.124Z,-0.16
2023-03-03T00:27:28.342Z,-0.14
2023-03-03T00:30:02.530Z,-0.14
2023-03-03T00:32:50.987Z,-0.17
2023-03-03T00:35:37.974Z,-0.19
2023-03-03T00:38:18.709Z,-0.19
2023-03-03T00:40:52.199Z,-0.20
2023-03-03T00:43:29.197Z,-0.19
2023-03-03T00:46:02.037Z,-0.21
2023-03-03T00:48:43.613Z,-0.23
2023-03-03T00:51:32.469Z,-0.25
2023-03-03T00:54:05.761Z,-0.26
2023-03-03T00:56:39.379Z,-0.29
2023-03-03T00:59:12.234Z,-0.30
2023-03-03T01:01:45.771Z,-0.31
2023-03-03T01:04:18.859Z,-0.32
2023-03-03T01:06:52.234Z,-0.34
2023-03-03T01:09:26.694Z,-0.31
2023-03-03T01:12:00.725Z,-0.30
2023-03-03T01:14:34.439Z,-0.32
2023-03-03T01:17:07.663Z,-0.32
2023-03-03T01:19:42.083Z,-0.35
2023-03-03T01:22:14.816Z,-0.37
2023-03-03T01:24:47.632Z,-0.38
2023-03-03T01:27:20.477Z,-0.43
2023-03-03T01:29:53.250Z,-0.45
2023-03-03T01:32:27.845Z,-0.46
2023-03-03T01:35:01.319Z,-0.50
2023-03-03T01:37:36.504Z,-0.56
2023-03-03T01:40:16.559Z,-0.61
2023-03-03T01:42:51.016Z,-0.65
2023-03-03T01:45:28.464Z,-0.67
2023-03-03T01:48:14.151Z,-0.68
2023-03-03T01:51:00.012Z,-0.70
2023-03-03T01:54:03.010Z,-0.71
2023-03-03T01:56:35.968Z,-0.71
2023-03-03T01:59:25.296Z,-0.72
2023-03-03T02:01:58.336Z,-0.70
2023-03-03T02:04:31.324Z,-0.70
2023-03-03T02:07:10.181Z,-0.72
2023-03-03T02:10:11.184Z,-0.71
2023-03-03T02:12:49.049Z,-0.70
2023-03-03T02:15:28.912Z,-0.68
2023-03-03T02:18:09.143Z,-0.64
2023-03-03T02:20:55.834Z,-0.61
2023-03-03T02:24:08.907Z,-0.62
2023-03-03T02:26:42.947Z,-0.66
2023-03-03T02:29:15.102Z,-0.67
2023-03-03T02:31:48.036Z,-0.68
2023-03-03T02:34:20.952Z,-0.68
2023-03-03T02:36:54.120Z,-0.67
2023-03-03T02:39:30.557Z,-0.67
2023-03-03T02:42:19.684Z,-0.66
2023-03-03T02:44:54.802Z,-0.65
2023-03-03T02:47:28.011Z,-0.67
2023-03-03T02:50:01.297Z,-0.69
2023-03-03T02:52:36.565Z,-0.69
2023-03-03T02:55:10.824Z,-0.68
2023-03-03T02:57:45.016Z,-0.70
2023-03-03T03:00:17.928Z,-0.71
2023-03-03T03:02:51.554Z,-0.72
2023-03-03T03:05:24.706Z,-0.75
2023-03-03T03:08:00.631Z,-0.75
2023-03-03T03:10:37.554Z,-0.77
2023-03-03T03:13:11.030Z,-0.76
2023-03-03T03:15:45.925Z,-0.77
2023-03-03T03:18:19.442Z,-0.78
2023-03-03T03:20:53.857Z,-0.79
2023-03-03T03:23:26.694Z,-0.82
2023-03-03T03:26:01.343Z,-0.83
2023-03-03T03:28:35.625Z,-0.89
2023-03-03T03:31:10.818Z,-0.94
2023-03-03T03:33:44.493Z,-0.99
2023-03-03T03:36:18.456Z,-1.04
2023-03-03T03:38:52.694Z,-1.06
2023-03-03T03:41:26.539Z,-1.08
2023-03-03T03:43:59.360Z,-1.11
2023-03-03T03:46:32.377Z,-1.13
2023-03-03T03:49:06.212Z,-1.14
2023-03-03T03:51:41.351Z,-1.13
2023-03-03T03:54:16.175Z,-1.14
2023-03-03T03:56:49.280Z,-1.15
2023-03-03T03:59:22.658Z,-1.15
2023-03-03T04:01:55.562Z,-1.14
2023-03-03T04:04:29.006Z,-1.13
2023-03-03T04:07:02.027Z,-1.15
2023-03-03T04:09:35.506Z,-1.17
2023-03-03T04:12:08.950Z,-1.17
2023-03-03T04:14:43.196Z,-1.18
2023-03-03T04:17:20.596Z,-1.20
2023-03-03T04:19:55.364Z,-1.19
2023-03-03T04:22:30.492Z,-1.18
2023-03-03T04:25:05.550Z,-1.15
2023-03-03T04:27:40.288Z,-1.14
2023-03-03T04:30:14.536Z,-1.12
2023-03-03T04:32:48.216Z,-1.12
2023-03-03T04:35:22.604Z,-1.11
2023-03-03T04:37:55.295Z,-1.08
2023-03-03T04:40:28.932Z,-1.05
2023-03-03T04:43:02.309Z,-1.04
2023-03-03T04:45:35.881Z,-1.03
2023-03-03T04:48:09.350Z,-0.99
2023-03-03T04:50:43.873Z,-0.96
2023-03-03T04:53:17.587Z,-0.94
2023-03-03T04:55:54.608Z,-0.92
2023-03-03T04:58:28.061Z,-0.89
2023-03-03T05:01:01.173Z,-0.87
2023-03-03T05:03:35.153Z,-0.86
2023-03-03T05:06:09.244Z,-0.85
2023-03-03T05:08:43.503Z,-0.81
2023-03-03T05:11:15.913Z,-0.77
2023-03-03T05:13:50.352Z,-0.70
2023-03-03T05:16:23.353Z,-0.64
2023-03-03T05:18:56.808Z,-0.55
2023-03-03T05:21:29.597Z,-0.45
2023-03-03T05:24:02.781Z,-0.35
2023-03-03T05:26:36.198Z,-0.26
2023-03-03T05:29:11.039Z,-0.17
2023-03-03T05:31:45.479Z,-0.10
2023-03-03T05:34:18.208Z,-0.02
2023-03-03T05:36:51.018Z,0.06
2023-03-03T05:39:24.651Z,0.15
2023-03-03T05:41:57.847Z,0.23
2023-03-03T05:44:31.796Z,0.33
2023-03-03T05:47:04.624Z,0.41
2023-03-03T05:49:38.211Z,0.49
2023-03-03T05:52:12.474Z,0.55
2023-03-03T05:54:45.403Z,0.62
2023-03-03T05:57:18.123Z,0.71
2023-03-03T05:59:51.418Z,0.79
2023-03-03T06:02:25.116Z,0.84
2023-03-03T06:04:58.010Z,0.94
2023-03-03T06:07:30.803Z,1.02
2023-03-03T06:10:04.594Z,1.09
2023-03-03T06:12:39.291Z,1.17
2023-03-03T06:15:13.311Z,1.25
2023-03-03T06:17:46.853Z,1.34
2023-03-03T06:20:20.497Z,1.42
2023-03-03T06:22:53.521Z,1.49
2023-03-03T06:25:26.609Z,1.57
2023-03-03T06:27:59.665Z,1.65
2023-03-03T06:30:33.128Z,1.73
2023-03-03T06:33:06.050Z,1.83
2023-03-03T06:35:39.837Z,1.93
2023-03-03T06:38:12.798Z,2.02
2023-03-03T06:40:47.109Z,2.11
2023-03-03T06:43:20.712Z,2.20
2023-03-03T06:45:53.697Z,2.28
2023-03-03T06:48:26.457Z,2.37
2023-03-03T06:51:04.741Z,2.44
2023-03-03T06:53:37.541Z,2.52
2023-03-03T06:56:11.917Z,2.60
2023-03-03T06:58:44.852Z,2.69
2023-03-03T07:01:19.414Z,2.80
2023-03-03T07:03:52.228Z,2.89
2023-03-03T07:06:28.631Z,2.98
2023-03-03T07:09:01.739Z,3.08
2023-03-03T07:11:37.495Z,3.18
2023-03-03T07:14:15.088Z,3.25
2023-03-03T07:16:49.021Z,3.33
2023-03-03T07:19:24.533Z,3.40
2023-03-03T07:21:57.313Z,3.46
2023-03-03T07:24:31.943Z,3.51
2023-03-03T07:27:28.356Z,3.56
2023-03-03T07:30:27.437Z,3.62
2023-03-03T07:33:01.897Z,3.70
2023-03-03T07:35:47.510Z,3.75
2023-03-03T07:38:42.007Z,3.78
2023-03-03T07:41:23.791Z,3.83
2023-03-03T07:44:06.799Z,3.87
2023-03-03T07:46:46.285Z,3.93
2023-03-03T07:49:32.439Z,3.99
2023-03-03T07:52:22.122Z,4.06
2023-03-03T07:54:59.040Z,4.13
2023-03-03T07:57:40.156Z,4.18
2023-03-03T08:00:23.504Z,4.23
2023-03-03T08:03:09.338Z,4.26
2023-03-03T08:05:49.229Z,4.34
2023-03-03T08:08:35.094Z,4.44
2023-03-03T08:11:09.680Z,4.51
2023-03-03T08:13:45.035Z,4.59
2023-03-03T08:16:20.268Z,4.66
2023-03-03T08:18:55.793Z,4.73
2023-03-03T08:21:29.288Z,4.78
2023-03-03T08:24:03.312Z,4.83
2023-03-03T08:26:37.356Z,4.84
2023-03-03T08:29:10.042Z,4.87
2023-03-03T08:31:43.458Z,4.93
2023-03-03T08:34:16.939Z,4.95
2023-03-03T08:36:50.307Z,4.99
2023-03-03T08:39:24.805Z,5.00
2023-03-03T08:41:58.076Z,5.02
2023-03-03T08:44:30.799Z,5.05
2023-03-03T08:47:03.956Z,5.08
2023-03-03T08:49:37.918Z,5.11
2023-03-03T08:52:10.968Z,5.14
2023-03-03T08:54:43.789Z,5.15
2023-03-03T08:57:17.142Z,5.19
2023-03-03T08:59:50.204Z,5.26
2023-03-03T09:02:23.254Z,5.35
2023-03-03T09:04:57.081Z,5.43
2023-03-03T09:07:30.841Z,5.50
2023-03-03T09:10:04.075Z,5.54
2023-03-03T09:12:44.445Z,5.62
2023-03-03T09:15:32.433Z,5.73
2023-03-03T09:18:24.048Z,5.78
2023-03-03T09:20:58.473Z,5.75
2023-03-03T09:23:39.460Z,5.71
2023-03-03T09:26:35.029Z,5.71
2023-03-03T09:29:27.924Z,5.69
2023-03-03T09:32:05.266Z,5.69
2023-03-03T09:34:44.029Z,5.75
2023-03-03T09:37:26.056Z,5.80
2023-03-03T09:40:00.024Z,5.84
2023-03-03T09:43:01.362Z,5.89
2023-03-03T09:45:48.729Z,5.96
2023-03-03T09:48:26.523Z,6.08
2023-03-03T09:51:36.104Z,6.16
2023-03-03T09:54:34.564Z,6.22
2023-03-03T09:57:20.827Z,6.25
2023-03-03T10:00:10.500Z,6.31
2023-03-03T10:03:14.794Z,6.39
2023-03-03T10:06:25.481Z,6.46
2023-03-03T10:09:11.675Z,6.57
2023-03-03T10:11:57.841Z,6.63
2023-03-03T10:15:08.558Z,6.60
2023-03-03T10:18:14.229Z,6.54
2023-03-03T10:20:54.291Z,6.45
2023-03-03T10:23:48.565Z,6.44
2023-03-03T10:26:52.523Z,6.41
2023-03-03T10:29:37.374Z,6.28
2023-03-03T10:32:23.441Z,6.16
2023-03-03T10:35:28.262Z,6.11
2023-03-03T10:38:30.288Z,6.08
2023-03-03T10:41:25.635Z,6.05
2023-03-03T10:44:12.130Z,6.05
2023-03-03T10:47:28.943Z,6.17
2023-03-03T10:50:49.032Z,6.31
2023-03-03T10:53:38.062Z,6.37
2023-03-03T10:56:52.906Z,6.33
2023-03-03T10:59:46.209Z,6.29
2023-03-03T11:02:41.997Z,6.30
2023-03-03T11:05:25.498Z,6.32
2023-03-03T11:08:24.196Z,6.38
2023-03-03T11:11:23.540Z,6.44
2023-03-03T11:14:10.348Z,6.57
2023-03-03T11:17:13.779Z,6.71
2023-03-03T11:20:08.010Z,6.88
2023-03-03T11:22:58.855Z,7.07
2023-03-03T11:25:55.980Z,7.13
2023-03-03T11:28:43.058Z,7.12
2023-03-03T11:31:32.486Z,7.10
2023-03-03T11:34:48.733Z,7.04
2023-03-03T11:37:49.555Z,7.04
2023-03-03T11:40:29.343Z,7.11
2023-03-03T11:43:36.034Z,7.10
2023-03-03T11:46:08.671Z,7.04
2023-03-03T11:49:04.199Z,6.90
2023-03-03T11:51:56.971Z,6.81
2023-03-03T11:54:43.074Z,6.68
2023-03-03T11:57:30.321Z,6.60
2023-03-03T12:00:16.461Z,6.56
2023-03-03T12:03:00.890Z,6.57
2023-03-03T12:05:53.178Z,6.59
2023-03-03T12:08:49.409Z,6.64
2023-03-03T12:11:35.432Z,6.65
2023-03-03T12:14:28.400Z,6.69
2023-03-03T12:17:28.787Z,6.76
2023-03-03T12:20:25.795Z,6.80
2023-03-03T12:23:36.688Z,6.78
2023-03-03T12:26:17.419Z,6.78
2023-03-03T12:29:08.577Z,6.74
2023-03-03T12:31:51.901Z,6.72
2023-03-03T12:34:46.343Z,6.66
2023-03-03T12:37:38.831Z,6.61
2023-03-03T12:40:19.319Z,6.55
2023-03-03T12:42:58.337Z,6.56
2023-03-03T12:46:03.307Z,6.58
2023-03-03T12:48:43.409Z,6.55
2023-03-03T12:51:51.906Z,6.47
2023-03-03T12:54:38.663Z,6.43
2023-03-03T12:57:40.812Z,6.39
2023-03-03T13:00:46.566Z,6.34
2023-03-03T13:03:56.549Z,6.31
2023-03-03T13:06:48.675Z,6.29
2023-03-03T13:09:50.561Z,6.30
2023-03-03T13:12:53.416Z,6.34
2023-03-03T13:15:37.535Z,6.40
2023-03-03T13:18:29.562Z,6.41
2023-03-03T13:21:24.589Z,6.36
2023-03-03T13:24:21.075Z,6.34
2023-03-03T13:27:04.347Z,6.32
2023-03-03T13:29:45.896Z,6.26
2023-03-03T13:32:25.697Z,6.25
2023-03-03T13:35:12.263Z,6.25
2023-03-03T13:37:49.550Z,6.28
2023-03-03T13:40:26.746Z,6.31
2023-03-03T13:43:13.110Z,6.33
2023-03-03T13:46:09.997Z,6.30
2023-03-03T13:49:13.746Z,6.25
2023-03-03T13:52:11.237Z,6.20
2023-03-03T13:55:13.020Z,6.15
2023-03-03T13:58:19.881Z,6.10
2023-03-03T14:01:03.237Z,6.03
2023-03-03T14:03:53.004Z,5.94
2023-03-03T14:06:30.413Z,5.87
2023-03-03T14:09:15.557Z,5.81
2023-03-03T14:11:56.394Z,5.77
2023-03-03T14:14:50.317Z,5.71
2023-03-03T14:17:40.585Z,5.65
2023-03-03T14:20:26.286Z,5.62
2023-03-03T14:23:22.373Z,5.59
2023-03-03T14:26:11.620Z,5.55
2023-03-03T14:28:48.499Z,5.51
2023-03-03T14:31:28.565Z,5.48
2023-03-03T14:34:38.791Z,5.42
2023-03-03T14:37:33.605Z,5.41
2023-03-03T14:40:29.068Z,5.37
2023-03-03T14:43:04.963Z,5.34
2023-03-03T14:45:43.171Z,5.30
2023-03-03T14:48:19.666Z,5.25
2023-03-03T14:51:03.289Z,5.22
2023-03-03T14:53:42.931Z,5.19
2023-03-03T14:56:37.079Z,5.14
2023-03-03T14:59:24.022Z,5.10
2023-03-03T15:02:20.173Z,5.05
2023-03-03T15:04:52.800Z,5.02
2023-03-03T15:07:36.144Z,4.97
2023-03-03T15:10:12.188Z,4.93
2023-03-03T15:12:45.453Z,4.91
2023-03-03T15:15:22.219Z,4.86
2023-03-03T15:18:02.531Z,4.84
2023-03-03T15:21:08.558Z,4.80
2023-03-03T15:24:15.501Z,4.77
2023-03-03T15:26:59.869Z,4.74
2023-03-03T15:29:43.434Z,4.71
2023-03-03T15:32:36.314Z,4.69
2023-03-03T15:35:26.320Z,4.66
2023-03-03T15:38:27.767Z,4.63
2023-03-03T15:41:29.787Z,4.60
2023-03-03T15:44:49.367Z,4.57
2023-03-03T15:48:16.928Z,4.54
2023-03-03T15:51:06.788Z,4.52
2023-03-03T15:54:08.677Z,4.49
2023-03-03T15:56:57.380Z,4.47
2023-03-03T16:00:12.690Z,4.46
2023-03-03T16:02:54.046Z,4.45
2023-03-03T16:05:46.800Z,4.40
2023-03-03T16:08:45.799Z,4.38
2023-03-03T16:11:29.551Z,4.35
2023-03-03T16:14:27.809Z,4.31
2023-03-03T16:17:17.790Z,4.28
2023-03-03T16:20:04.618Z,4.25
2023-03-03T16:22:48.359Z,4.23
2023-03-03T16:26:02.361Z,4.22
2023-03-03T16:28:46.916Z,4.21
2023-03-03T16:31:32.702Z,4.21
2023-03-03T16:34:33.673Z,4.20
2023-03-03T16:37:23.262Z,4.17
2023-03-03T16:40:25.445Z,4.15
2023-03-03T16:43:36.044Z,4.15
2023-03-03T16:46:33.134Z,4.14
2023-03-03T16:49:28.660Z,4.13
2023-03-03T16:52:20.602Z,4.10
2023-03-03T16:55:00.485Z,4.05
2023-03-03T16:58:02.495Z,4.03
2023-03-03T17:01:00.435Z,4.01
2023-03-03T17:04:01.155Z,3.99
2023-03-03T17:06:57.514Z,4.00
2023-03-03T17:10:00.009Z,3.99
2023-03-03T17:12:54.552Z,3.96
2023-03-03T17:15:44.919Z,3.93
2023-03-03T17:18:54.468Z,3.91
2023-03-03T17:21:50.608Z,3.86
2023-03-03T17:24:52.237Z,3.84
2023-03-03T17:27:42.009Z,3.80
2023-03-03T17:30:22.184Z,3.78
2023-03-03T17:33:14.396Z,3.78
2023-03-03T17:36:15.255Z,3.78
2023-03-03T17:39:30.394Z,3.78
2023-03-03T17:42:13.660Z,3.77
2023-03-03T17:45:05.914Z,3.77
2023-03-03T17:48:01.539Z,3.77
2023-03-03T17:51:07.667Z,3.75
2023-03-03T17:54:03.114Z,3.72
2023-03-03T17:57:00.191Z,3.67
2023-03-03T17:59:58.960Z,3.66
2023-03-03T18:02:45.278Z,3.65
2023-03-03T18:05:49.443Z,3.63
2023-03-03T18:09:14.860Z,3.60
2023-03-03T18:12:10.206Z,3.58
2023-03-03T18:15:14.926Z,3.56
2023-03-03T18:17:56.252Z,3.52
2023-03-03T18:20:54.635Z,3.48
2023-03-03T18:23:42.730Z,3.43
2023-03-03T18:26:39.909Z,3.39
2023-03-03T18:29:23.114Z,3.39
2023-03-03T18:32:03.218Z,3.40
2023-03-03T18:34:43.209Z,3.43
2023-03-03T18:37:38.995Z,3.42
2023-03-03T18:40:18.340Z,3.42
2023-03-03T18:42:53.355Z,3.36
2023-03-03T18:45:31.300Z,3.30
2023-03-03T18:48:11.781Z,3.28
2023-03-03T18:50:52.717Z,3.27
2023-03-03T18:53:36.064Z,3.27
2023-03-03T18:56:11.836Z,3.25
2023-03-03T18:58:45.318Z,3.26
2023-03-03T19:01:44.599Z,3.25
2023-03-03T19:04:20.742Z,3.24
2023-03-03T19:07:00.355Z,3.21
2023-03-03T19:10:03.022Z,3.20
2023-03-03T19:12:59.594Z,3.17
2023-03-03T19:15:37.749Z,3.15
2023-03-03T19:18:26.873Z,3.16
2023-03-03T19:21:07.650Z,3.15
2023-03-03T19:24:01.486Z,3.15
2023-03-03T19:26:48.417Z,3.14
2023-03-03T19:29:47.309Z,3.13
2023-03-03T19:32:45.617Z,3.07
2023-03-03T19:35:53.378Z,3.07
2023-03-03T19:38:34.167Z,3.07
2023-03-03T19:41:30.134Z,3.08
2023-03-03T19:44:26.833Z,3.12
2023-03-03T19:47:20.654Z,3.08
2023-03-03T19:50:35.868Z,3.06
2023-03-03T19:53:43.980Z,3.04
2023-03-03T19:56:42.166Z,3.02
2023-03-03T19:59:35.037Z,2.98
2023-03-03T20:02:42.990Z,2.97
2023-03-03T20:05:23.589Z,2.96
2023-03-03T20:08:10.143Z,2.95
2023-03-03T20:11:15.713Z,2.97
2023-03-03T20:14:01.836Z,2.96
2023-03-03T20:16:43.549Z,2.91
2023-03-03T20:19:37.567Z,2.86
2023-03-03T20:22:24.605Z,2.82
2023-03-03T20:25:11.794Z,2.78
2023-03-03T20:27:58.273Z,2.74
2023-03-03T20:30:53.437Z,2.72
2023-03-03T20:33:39.734Z,2.70
2023-03-03T20:36:29.279Z,2.67
2023-03-03T20:39:27.702Z,2.64
2023-03-03T20:42:23.437Z,2.60
2023-03-03T20:45:15.005Z,2.58
2023-03-03T20:48:16.513Z,2.57
2023-03-03T20:51:06.857Z,2.54
2023-03-03T20:53:47.340Z,2.56
2023-03-03T20:56:39.753Z,2.57
2023-03-03T20:59:39.925Z,2.59
2023-03-03T21:02:32.550Z,2.59
2023-03-03T21:05:23.591Z,2.61
2023-03-03T21:08:03.330Z,2.62
2023-03-03T21:10:41.641Z,2.62
2023-03-03T21:13:46.389Z,2.63
2023-03-03T21:16:30.026Z,2.61
2023-03-03T21:19:10.157Z,2.61
2023-03-03T21:21:48.318Z,2.59
2023-03-03T21:24:22.031Z,2.58
2023-03-03T21:27:02.835Z,2.57
2023-03-03T21:29:37.980Z,2.53
2023-03-03T21:32:11.119Z,2.51
2023-03-03T21:34:44.742Z,2.49
2023-03-03T21:37:23.021Z,2.45
2023-03-03T21:40:06.122Z,2.44
2023-03-03T21:42:45.169Z,2.42
2023-03-03T21:45:20.694Z,2.41
2023-03-03T21:47:55.425Z,2.39
2023-03-03T21:50:31.156Z,2.35
2023-03-03T21:53:04.580Z,2.32
2023-03-03T21:55:37.315Z,2.31
2023-03-03T21:58:11.985Z,2.31
2023-03-03T22:00:45.658Z,2.31
2023-03-03T22:03:20.066Z,2.31
2023-03-03T22:05:54.053Z,2.32
2023-03-03T22:08:28.299Z,2.31
2023-03-03T22:11:02.240Z,2.30
2023-03-03T22:13:35.639Z,2.29
2023-03-03T22:16:10.168Z,2.28
2023-03-03T22:18:42.899Z,2.26
2023-03-03T22:21:16.139Z,2.24
2023-03-03T22:23:48.981Z,2.22
2023-03-03T22:26:24.690Z,2.24
2023-03-03T22:28:57.502Z,2.25
2023-03-03T22:31:30.851Z,2.26
2023-03-03T22:34:04.921Z,2.27
2023-03-03T22:36:39.088Z,2.28
2023-03-03T22:39:12.286Z,2.29
2023-03-03T22:41:45.366Z,2.28
2023-03-03T22:44:18.520Z,2.27
2023-03-03T22:46:52.067Z,2.26
2023-03-03T22:49:25.018Z,2.24
2023-03-03T22:51:59.080Z,2.24
2023-03-03T22:54:32.387Z,2.22
2023-03-03T22:57:05.401Z,2.20
2023-03-03T22:59:38.272Z,2.18
2023-03-03T23:02:11.334Z,2.19
2023-03-03T23:04:44.247Z,2.16
2023-03-03T23:07:17.373Z,2.15
2023-03-03T23:09:50.022Z,2.14
2023-03-03T23:12:24.799Z,2.13
2023-03-03T23:14:57.931Z,2.11
2023-03-03T23:17:31.010Z,2.09
2023-03-03T23:20:04.155Z,2.08
2023-03-03T23:22:37.116Z,2.08
2023-03-03T23:25:11.233Z,2.09
2023-03-03T23:27:46.934Z,2.10
2023-03-03T23:30:21.723Z,2.11
2023-03-03T23:32:55.271Z,2.11
2023-03-03T23:35:28.182Z,2.10
2023-03-03T23:38:02.757Z,2.06
2023-03-03T23:40:36.701Z,2.04
2023-03-03T23:43:10.209Z,2.04
2023-03-03T23:45:43.719Z,2.01
2023-03-03T23:48:16.866Z,2.03
2023-03-03T23:50:50.914Z,2.03
2023-03-03T23:53:23.641Z,2.03
2023-03-03T23:55:56.676Z,2.02
2023-03-03T23:58:29.312Z,2.02
